createdAt,value
2019-02-21T00:02:08.874Z,15.40
2019-02-21T00:04:37.191Z,15.60
2019-02-21T00:07:05.526Z,15.80
2019-02-21T00:09:33.816Z,16.50
2019-02-21T00:12:02.146Z,16.10
2019-02-21T00:14:30.425Z,16.10
2019-02-21T00:16:58.900Z,15.67
2019-02-21T00:19:27.159Z,15.83
2019-02-21T00:21:55.489Z,16.07
2019-02-21T00:24:23.791Z,15.93
2019-02-21T00:26:52.060Z,16.20
2019-02-21T00:29:20.394Z,16.47
2019-02-21T00:31:48.679Z,16.87
2019-02-21T00:34:16.968Z,18.10
2019-02-21T00:36:45.543Z,17.60
2019-02-21T00:39:13.825Z,17.53
2019-02-21T00:41:42.143Z,17.63
2019-02-21T00:44:10.443Z,17.40
2019-02-21T00:46:38.743Z,18.17
2019-02-21T00:49:07.056Z,18.03
2019-02-21T00:51:35.334Z,16.30
2019-02-21T00:54:03.614Z,17.97
2019-02-21T00:56:31.910Z,18.67
2019-02-21T00:59:00.226Z,17.57
2019-02-21T01:01:28.669Z,18.70
2019-02-21T01:03:56.933Z,17.70
2019-02-21T01:06:25.208Z,18.20
2019-02-21T01:08:53.524Z,16.90
2019-02-21T01:11:21.808Z,16.83
2019-02-21T01:13:50.104Z,17.70
2019-02-21T01:16:18.387Z,17.97
2019-02-21T01:18:46.774Z,17.70
2019-02-21T01:21:19.278Z,16.97
2019-02-21T01:23:51.647Z,17.53
2019-02-21T01:26:24.386Z,17.07
2019-02-21T01:28:52.721Z,18.57
2019-02-21T01:31:22.679Z,17.40
2019-02-21T01:33:50.945Z,18.37
2019-02-21T01:36:22.336Z,17.97
2019-02-21T01:38:50.620Z,18.37
2019-02-21T01:41:21.145Z,18.97
2019-02-21T01:43:49.760Z,19.90
2019-02-21T01:46:21.523Z,19.73
2019-02-21T01:48:54.679Z,18.03
2019-02-21T01:51:26.249Z,19.43
2019-02-21T01:53:58.908Z,18.47
2019-02-21T01:56:29.272Z,17.50
2019-02-21T01:59:02.184Z,18.07
2019-02-21T02:01:30.873Z,18.20
2019-02-21T02:04:02.764Z,17.97
2019-02-21T02:06:51.251Z,18.00
2019-02-21T02:09:19.602Z,18.23
2019-02-21T02:11:51.605Z,18.43
2019-02-21T02:14:20.481Z,19.80
2019-02-21T02:16:48.777Z,17.70
2019-02-21T02:19:17.064Z,19.23
2019-02-21T02:21:45.357Z,18.37
2019-02-21T02:24:14.820Z,17.93
2019-02-21T02:26:43.841Z,18.50
2019-02-21T02:29:12.128Z,19.33
2019-02-21T02:31:40.663Z,18.10
2019-02-21T02:34:08.974Z,19.00
2019-02-21T02:36:37.376Z,20.70
2019-02-21T02:39:06.141Z,18.87
2019-02-21T02:41:34.406Z,18.40
2019-02-21T02:44:02.684Z,19.40
2019-02-21T02:46:30.995Z,19.00
2019-02-21T02:48:59.300Z,19.10
2019-02-21T02:51:27.590Z,18.43
2019-02-21T02:53:55.897Z,18.47
2019-02-21T02:56:24.172Z,18.83
2019-02-21T02:58:52.474Z,20.37
2019-02-21T03:01:20.818Z,18.07
2019-02-21T03:03:49.111Z,18.60
2019-02-21T03:06:17.408Z,18.90
2019-02-21T03:08:45.683Z,19.13
2019-02-21T03:11:13.965Z,18.40
2019-02-21T03:13:42.236Z,19.60
2019-02-21T03:16:10.560Z,19.30
2019-02-21T03:18:38.850Z,19.53
2019-02-21T03:21:07.148Z,19.33
2019-02-21T03:23:35.427Z,20.60
2019-02-21T03:26:03.758Z,20.10
2019-02-21T03:28:32.031Z,19.57
2019-02-21T03:31:00.339Z,19.67
2019-02-21T03:33:28.688Z,19.70
2019-02-21T03:35:57.521Z,20.20
2019-02-21T03:38:25.798Z,21.20
2019-02-21T03:40:54.058Z,22.90
2019-02-21T03:43:22.342Z,20.50
2019-02-21T03:45:50.626Z,21.40
2019-02-21T03:48:18.906Z,21.00
2019-02-21T03:50:47.211Z,21.23
2019-02-21T03:53:15.497Z,21.90
2019-02-21T03:55:43.797Z,21.13
2019-02-21T03:58:12.364Z,21.40
2019-02-21T04:00:40.655Z,20.80
2019-02-21T04:03:08.939Z,22.33
2019-02-21T04:05:37.213Z,21.33
2019-02-21T04:08:05.574Z,20.97
2019-02-21T04:10:33.865Z,21.17
2019-02-21T04:13:02.135Z,20.50
2019-02-21T04:15:30.582Z,20.13
2019-02-21T04:17:58.869Z,21.20
2019-02-21T04:20:27.153Z,20.43
2019-02-21T04:22:55.416Z,21.73
2019-02-21T04:25:23.810Z,21.50
2019-02-21T04:27:52.068Z,21.90
2019-02-21T04:30:20.364Z,21.50
2019-02-21T04:32:48.638Z,23.40
2019-02-21T04:35:16.925Z,20.57
2019-02-21T04:37:45.203Z,20.13
2019-02-21T04:40:13.470Z,21.80
2019-02-21T04:42:41.752Z,21.03
2019-02-21T04:45:10.079Z,22.40
2019-02-21T04:47:38.346Z,21.13
2019-02-21T04:50:06.995Z,22.60
2019-02-21T04:52:35.316Z,20.90
2019-02-21T04:55:03.887Z,19.97
2019-02-21T04:57:32.158Z,20.47
2019-02-21T05:00:00.459Z,20.30
2019-02-21T05:02:29.745Z,20.90
2019-02-21T05:04:58.061Z,21.27
2019-02-21T05:07:26.590Z,21.33
2019-02-21T05:09:58.247Z,21.80
2019-02-21T05:12:25.454Z,23.93
2019-02-21T05:14:53.739Z,22.80
2019-02-21T05:17:22.579Z,23.13
2019-02-21T05:19:50.858Z,23.80
2019-02-21T05:22:19.161Z,23.60
2019-02-21T05:24:47.441Z,22.63
2019-02-21T05:27:19.773Z,25.53
2019-02-21T05:29:48.067Z,23.73
2019-02-21T05:32:20.419Z,22.90
2019-02-21T05:34:52.815Z,22.60
2019-02-21T05:37:25.242Z,23.53
2019-02-21T05:39:55.153Z,24.03
2019-02-21T05:42:33.941Z,23.03
2019-02-21T05:45:10.973Z,23.67
2019-02-21T05:47:53.614Z,23.93
2019-02-21T05:50:26.250Z,21.83
2019-02-21T05:53:01.898Z,25.30
2019-02-21T05:55:43.615Z,22.03
2019-02-21T05:58:22.538Z,24.60
2019-02-21T06:01:08.589Z,22.80
2019-02-21T06:03:54.856Z,22.97
2019-02-21T06:06:41.132Z,23.27
2019-02-21T06:09:17.025Z,23.77
2019-02-21T06:11:46.969Z,23.90
2019-02-21T06:14:22.566Z,23.00
2019-02-21T06:16:58.394Z,23.77
2019-02-21T06:19:28.319Z,21.50
2019-02-21T06:22:09.729Z,22.67
2019-02-21T06:24:42.011Z,23.30
2019-02-21T06:27:26.756Z,23.60
2019-02-21T06:29:56.683Z,22.10
2019-02-21T06:32:24.954Z,22.90
2019-02-21T06:34:53.242Z,23.03
2019-02-21T06:37:21.524Z,24.33
2019-02-21T06:39:49.782Z,24.50
2019-02-21T06:42:18.086Z,23.60
2019-02-21T06:44:46.358Z,23.10
2019-02-21T06:47:15.753Z,23.37
2019-02-21T06:49:44.032Z,23.70
2019-02-21T06:52:12.312Z,21.63
2019-02-21T06:54:40.580Z,23.27
2019-02-21T06:57:08.908Z,22.73
2019-02-21T06:59:42.458Z,22.57
2019-02-21T07:02:07.208Z,22.97
2019-02-21T07:04:35.514Z,21.90
2019-02-21T07:07:03.791Z,23.53
2019-02-21T07:09:32.166Z,21.90
2019-02-21T07:12:00.476Z,20.40
2019-02-21T07:14:28.764Z,23.87
2019-02-21T07:16:57.024Z,23.10
2019-02-21T07:19:25.319Z,22.90
2019-02-21T07:21:53.594Z,24.40
2019-02-21T07:24:22.157Z,23.17
2019-02-21T07:26:50.448Z,24.13
2019-02-21T07:29:18.732Z,23.83
2019-02-21T07:31:49.299Z,23.90
2019-02-21T07:34:17.112Z,26.13
2019-02-21T07:36:45.412Z,23.80
2019-02-21T07:39:18.358Z,24.40
2019-02-21T07:41:43.733Z,26.20
2019-02-21T07:44:12.634Z,23.57
2019-02-21T07:46:40.949Z,25.03
2019-02-21T07:49:09.258Z,24.30
2019-02-21T07:51:37.583Z,25.33
2019-02-21T07:54:05.980Z,24.37
2019-02-21T07:56:41.546Z,24.77
2019-02-21T07:59:04.212Z,25.07
2019-02-21T08:01:32.494Z,24.23
2019-02-21T08:04:00.789Z,24.63
2019-02-21T08:06:29.075Z,24.57
2019-02-21T08:08:57.358Z,25.97
2019-02-21T08:11:25.656Z,24.30
2019-02-21T08:13:53.918Z,27.87
2019-02-21T08:16:22.209Z,25.60
2019-02-21T08:18:50.492Z,26.77
2019-02-21T08:21:18.791Z,25.80
2019-02-21T08:23:50.435Z,27.17
2019-02-21T08:26:19.885Z,27.13
2019-02-21T08:28:47.103Z,25.43
2019-02-21T08:31:15.568Z,25.80
2019-02-21T08:34:04.397Z,27.13
2019-02-21T08:36:32.806Z,25.90
2019-02-21T08:39:01.111Z,26.97
2019-02-21T08:41:29.387Z,26.47
2019-02-21T08:43:57.679Z,26.20
2019-02-21T08:46:25.964Z,27.00
2019-02-21T08:48:54.255Z,27.93
2019-02-21T08:51:22.523Z,25.50
2019-02-21T08:53:50.790Z,27.83
2019-02-21T08:56:19.072Z,27.87
2019-02-21T08:58:47.374Z,27.10
2019-02-21T09:01:15.651Z,27.00
2019-02-21T09:03:43.954Z,27.93
2019-02-21T09:06:12.219Z,26.27
2019-02-21T09:08:40.489Z,27.87
2019-02-21T09:11:08.784Z,27.67
2019-02-21T09:13:37.095Z,27.40
2019-02-21T09:16:05.389Z,25.70
2019-02-21T09:18:33.671Z,26.20
2019-02-21T09:21:01.938Z,28.00
2019-02-21T09:23:30.232Z,28.27
2019-02-21T09:25:58.519Z,26.37
2019-02-21T09:28:26.821Z,26.60
2019-02-21T09:30:55.108Z,27.37
2019-02-21T09:33:23.398Z,27.30
2019-02-21T09:35:51.678Z,27.00
2019-02-21T09:38:19.973Z,29.10
2019-02-21T09:40:48.251Z,25.80
2019-02-21T09:43:16.537Z,25.87
2019-02-21T09:45:44.820Z,29.60
2019-02-21T09:48:13.087Z,27.57
2019-02-21T09:50:41.384Z,28.10
2019-02-21T09:53:09.652Z,27.67
2019-02-21T09:55:38.055Z,29.10
2019-02-21T09:58:06.408Z,26.33
2019-02-21T10:00:35.982Z,27.63
2019-02-21T10:03:04.362Z,28.93
2019-02-21T10:05:32.726Z,28.20
2019-02-21T10:08:01.053Z,27.73
2019-02-21T10:10:29.328Z,26.67
2019-02-21T10:12:57.681Z,27.43
2019-02-21T10:15:25.956Z,28.80
2019-02-21T10:17:54.239Z,27.57
2019-02-21T10:20:22.879Z,29.10
2019-02-21T10:22:51.247Z,27.47
2019-02-21T10:25:23.322Z,30.00
2019-02-21T10:27:51.776Z,28.00
2019-02-21T10:30:21.779Z,28.10
2019-02-21T10:32:50.166Z,28.43
2019-02-21T10:35:18.467Z,28.53
2019-02-21T10:37:46.743Z,28.80
2019-02-21T10:40:15.958Z,29.20
2019-02-21T10:42:44.299Z,28.30
2019-02-21T10:45:20.909Z,29.27
2019-02-21T10:47:49.273Z,28.50
2019-02-21T10:50:19.016Z,30.07
2019-02-21T10:52:47.670Z,29.23
2019-02-21T10:55:16.924Z,28.17
2019-02-21T10:57:45.726Z,29.33
2019-02-21T11:00:20.210Z,31.20
2019-02-21T11:02:48.506Z,28.13
2019-02-21T11:05:16.815Z,30.17
2019-02-21T11:07:45.193Z,31.13
2019-02-21T11:10:19.460Z,30.13
2019-02-21T11:12:47.732Z,29.80
2019-02-21T11:15:18.428Z,28.27
2019-02-21T11:17:46.725Z,30.90
2019-02-21T11:20:17.045Z,30.97
2019-02-21T11:22:45.306Z,29.00
2019-02-21T11:25:13.674Z,30.27
2019-02-21T11:27:42.089Z,31.37
2019-02-21T11:30:15.673Z,30.80
2019-02-21T11:32:44.010Z,31.40
2019-02-21T11:35:12.358Z,29.67
2019-02-21T11:37:44.459Z,29.93
2019-02-21T11:43:16.005Z,29.40
2019-02-21T11:45:53.605Z,28.63
2019-02-21T11:48:14.346Z,29.63
2019-02-21T11:50:42.649Z,28.97
2019-02-21T11:53:10.980Z,30.20
2019-02-21T11:55:39.272Z,29.37
2019-02-21T11:58:07.567Z,27.77
2019-02-21T12:00:35.924Z,29.50
2019-02-21T12:03:08.549Z,27.63
2019-02-21T12:05:40.201Z,29.67
2019-02-21T12:08:08.574Z,29.90
2019-02-21T12:10:37.033Z,29.93
2019-02-21T12:13:05.399Z,29.77
2019-02-21T12:15:33.678Z,28.53
2019-02-21T12:18:01.955Z,28.80
2019-02-21T12:20:30.239Z,28.37
2019-02-21T12:22:58.514Z,28.30
2019-02-21T12:25:26.809Z,28.80
2019-02-21T12:27:55.086Z,29.87
2019-02-21T12:30:23.374Z,28.80
2019-02-21T12:32:51.634Z,28.47
2019-02-21T12:35:29.269Z,29.60
2019-02-21T12:37:49.921Z,27.57
2019-02-21T12:40:22.440Z,29.33
2019-02-21T12:42:50.704Z,27.90
2019-02-21T12:45:22.005Z,25.37
2019-02-21T12:47:53.571Z,28.67
2019-02-21T12:50:20.314Z,26.97
2019-02-21T12:52:48.628Z,28.90
2019-02-21T12:55:27.050Z,26.87
2019-02-21T12:57:46.903Z,27.67
2019-02-21T13:00:19.629Z,27.47
2019-02-21T13:02:47.962Z,27.27
2019-02-21T13:05:16.232Z,29.90
2019-02-21T13:07:44.524Z,30.87
2019-02-21T13:10:17.863Z,30.70
2019-02-21T13:12:46.153Z,28.53
2019-02-21T13:15:21.344Z,26.70
2019-02-21T13:18:01.779Z,27.80
2019-02-21T13:20:30.240Z,27.17
2019-02-21T13:22:58.541Z,26.17
2019-02-21T13:25:26.821Z,28.13
2019-02-21T13:27:55.105Z,27.40
2019-02-21T13:30:23.411Z,26.50
2019-02-21T13:32:51.682Z,28.83
2019-02-21T13:35:19.954Z,26.67
2019-02-21T13:37:48.228Z,30.93
2019-02-21T13:40:17.249Z,28.53
2019-02-21T13:42:45.534Z,27.50
2019-02-21T13:45:17.452Z,27.30
2019-02-21T13:47:45.575Z,27.47
2019-02-21T13:50:16.472Z,27.07
2019-02-21T13:52:44.814Z,26.27
2019-02-21T13:55:13.183Z,28.20
2019-02-21T13:57:41.532Z,25.30
2019-02-21T14:00:18.567Z,25.80
2019-02-21T14:02:46.851Z,26.30
2019-02-21T14:05:15.226Z,26.10
2019-02-21T14:07:43.534Z,26.17
2019-02-21T14:10:13.469Z,26.77
2019-02-21T14:12:41.831Z,26.80
2019-02-21T14:15:18.737Z,25.10
2019-02-21T14:17:47.080Z,24.33
2019-02-21T14:20:15.373Z,25.17
2019-02-21T14:22:43.710Z,24.50
2019-02-21T14:25:12.021Z,25.83
2019-02-21T14:27:40.298Z,30.80
2019-02-21T14:30:14.465Z,26.73
2019-02-21T14:32:42.740Z,25.80
2019-02-21T14:35:12.584Z,25.53
2019-02-21T14:37:40.854Z,26.57
2019-02-21T14:40:11.408Z,26.07
2019-02-21T14:42:40.283Z,25.07
2019-02-21T14:45:16.346Z,26.60
2019-02-21T14:47:44.627Z,26.03
2019-02-21T14:50:13.318Z,25.53
2019-02-21T14:52:41.617Z,25.27
2019-02-21T14:55:12.910Z,23.17
2019-02-21T14:57:41.489Z,24.13
2019-02-21T15:00:13.522Z,23.03
2019-02-21T15:02:41.818Z,24.20
2019-02-21T15:05:10.274Z,23.90
2019-02-21T15:07:38.482Z,25.70
2019-02-21T15:10:09.114Z,25.10
2019-02-21T15:12:37.408Z,25.03
2019-02-21T15:15:11.160Z,23.83
2019-02-21T15:17:39.458Z,24.10
2019-02-21T15:20:10.449Z,24.40
2019-02-21T15:22:38.756Z,24.27
2019-02-21T15:25:08.681Z,24.20
2019-02-21T15:27:37.003Z,24.00
2019-02-21T15:30:11.127Z,24.87
2019-02-21T15:32:39.397Z,25.73
2019-02-21T15:35:07.771Z,27.60
2019-02-21T15:37:36.112Z,24.63
2019-02-21T15:40:08.732Z,24.53
2019-02-21T15:42:36.453Z,26.53
2019-02-21T15:45:09.707Z,24.27
2019-02-21T15:47:37.915Z,26.13
2019-02-21T15:50:09.194Z,24.53
2019-02-21T15:52:37.498Z,25.27
2019-02-21T15:55:12.663Z,24.87
2019-02-21T15:57:39.188Z,25.70
2019-02-21T16:00:10.260Z,26.73
2019-02-21T16:02:38.554Z,27.07
2019-02-21T16:05:07.870Z,26.20
2019-02-21T16:07:36.142Z,25.10
2019-02-21T16:10:07.649Z,25.60
2019-02-21T16:12:36.128Z,23.93
2019-02-21T16:15:06.830Z,25.60
2019-02-21T16:17:37.075Z,25.73
2019-02-21T16:20:08.429Z,24.07
2019-02-21T16:22:36.896Z,23.73
2019-02-21T16:25:11.045Z,25.70
2019-02-21T16:27:39.378Z,25.57
2019-02-21T16:30:09.716Z,25.30
2019-02-21T16:32:38.002Z,25.87
2019-02-21T16:35:09.726Z,26.13
2019-02-21T16:37:39.651Z,25.40
2019-02-21T16:40:15.744Z,25.60
2019-02-21T16:42:44.081Z,26.47
2019-02-21T16:45:14.549Z,24.70
2019-02-21T16:47:42.908Z,27.20
2019-02-21T16:50:13.326Z,26.90
2019-02-21T16:52:41.634Z,27.63
2019-02-21T16:55:15.639Z,26.97
2019-02-21T16:57:43.961Z,27.30
2019-02-21T17:00:14.844Z,26.30
2019-02-21T17:02:43.131Z,26.17
2019-02-21T17:05:11.486Z,28.10
2019-02-21T17:07:39.796Z,26.83
2019-02-21T17:10:31.646Z,26.77
2019-02-21T17:12:59.941Z,28.57
2019-02-21T17:15:28.206Z,26.10
2019-02-21T17:17:56.587Z,27.73
2019-02-21T17:20:26.790Z,28.40
2019-02-21T17:22:55.133Z,28.37
2019-02-21T17:25:23.412Z,27.30
2019-02-21T17:27:51.689Z,28.87
2019-02-21T17:30:20.922Z,27.50
2019-02-21T17:32:49.259Z,29.57
2019-02-21T17:35:17.544Z,29.97
2019-02-21T17:37:45.904Z,30.73
2019-02-21T17:40:17.010Z,29.60
2019-02-21T17:42:45.385Z,31.07
2019-02-21T17:45:13.737Z,31.70
2019-02-21T17:47:42.007Z,31.63
2019-02-21T17:50:12.346Z,30.77
2019-02-21T17:52:40.648Z,31.23
2019-02-21T17:55:10.458Z,30.67
2019-02-21T17:57:38.822Z,30.53
2019-02-21T18:00:12.937Z,31.40
2019-02-21T18:02:41.207Z,29.97
2019-02-21T18:05:10.634Z,29.77
2019-02-21T18:07:38.916Z,30.03
2019-02-21T18:10:15.784Z,31.20
2019-02-21T18:12:44.060Z,31.03
2019-02-21T18:15:16.285Z,31.73
2019-02-21T18:17:44.536Z,31.60
2019-02-21T18:20:14.264Z,32.13
2019-02-21T18:22:42.567Z,31.03
2019-02-21T18:25:26.272Z,31.70
2019-02-21T18:27:54.610Z,31.10
2019-02-21T18:30:22.890Z,30.70
2019-02-21T18:32:51.173Z,32.20
2019-02-21T18:35:19.434Z,30.00
2019-02-21T18:37:48.073Z,31.20
2019-02-21T18:40:24.916Z,29.83
2019-02-21T18:42:53.201Z,31.10
2019-02-21T18:45:21.504Z,30.97
2019-02-21T18:47:49.849Z,30.87
2019-02-21T18:50:18.267Z,31.10
2019-02-21T18:52:46.569Z,30.40
2019-02-21T18:55:14.964Z,32.80
2019-02-21T18:57:43.265Z,31.80
2019-02-21T19:00:25.840Z,31.50
2019-02-21T19:02:54.245Z,31.30
2019-02-21T19:05:22.543Z,29.07
2019-02-21T19:08:00.383Z,31.43
2019-02-21T19:10:21.913Z,31.70
2019-02-21T19:12:50.197Z,30.70
2019-02-21T19:15:19.740Z,32.50
2019-02-21T19:17:48.097Z,31.83
2019-02-21T19:20:18.143Z,30.40
2019-02-21T19:22:46.405Z,35.30
2019-02-21T19:25:14.965Z,30.77
2019-02-21T19:27:43.267Z,34.10
2019-02-21T19:30:55.052Z,31.90
2019-02-21T19:33:23.429Z,32.30
2019-02-21T19:35:51.751Z,30.83
2019-02-21T19:38:20.090Z,31.67
2019-02-21T19:40:48.365Z,30.90
2019-02-21T19:43:16.671Z,30.90
2019-02-21T19:45:44.965Z,30.87
2019-02-21T19:48:13.268Z,31.40
2019-02-21T19:50:41.633Z,30.77
2019-02-21T19:53:09.946Z,31.27
2019-02-21T19:55:38.249Z,29.53
2019-02-21T19:58:06.709Z,31.53
2019-02-21T20:00:36.830Z,30.33
2019-02-21T20:03:05.326Z,31.00
2019-02-21T20:05:33.863Z,31.83
2019-02-21T20:08:08.664Z,31.70
2019-02-21T20:10:32.161Z,30.37
2019-02-21T20:13:02.222Z,31.40
2019-02-21T20:15:30.496Z,30.83
2019-02-21T20:17:58.828Z,30.90
2019-02-21T20:20:28.648Z,29.43
2019-02-21T20:22:56.927Z,29.90
2019-02-21T20:25:25.237Z,30.10
2019-02-21T20:27:53.513Z,28.87
2019-02-21T20:30:21.826Z,31.17
2019-02-21T20:32:50.081Z,31.13
2019-02-21T20:35:18.372Z,30.80
2019-02-21T20:37:46.648Z,30.57
2019-02-21T20:40:14.951Z,29.70
2019-02-21T20:42:43.216Z,31.33
2019-02-21T20:45:12.936Z,31.17
2019-02-21T20:47:41.406Z,31.70
2019-02-21T20:50:11.623Z,30.53
2019-02-21T20:52:39.983Z,30.30
2019-02-21T20:55:10.007Z,29.27
2019-02-21T20:57:38.290Z,31.07
2019-02-21T21:00:12.618Z,33.37
2019-02-21T21:02:40.957Z,31.57
2019-02-21T21:05:09.313Z,31.20
2019-02-21T21:07:37.651Z,31.30
2019-02-21T21:10:09.446Z,33.30
2019-02-21T21:12:37.873Z,31.80
2019-02-21T21:15:09.528Z,32.03
2019-02-21T21:17:37.679Z,33.40
2019-02-21T21:20:16.654Z,32.70
2019-02-21T21:22:38.827Z,31.77
2019-02-21T21:25:10.246Z,31.57
2019-02-21T21:27:38.810Z,31.13
2019-02-21T21:30:09.825Z,31.53
2019-02-21T21:32:38.132Z,31.77
2019-02-21T21:35:06.591Z,32.23
2019-02-21T21:37:34.888Z,33.23
2019-02-21T21:40:03.535Z,32.80
2019-02-21T21:42:31.852Z,31.43
2019-02-21T21:45:00.326Z,31.90
2019-02-21T21:47:28.671Z,30.53
2019-02-21T21:49:56.961Z,33.20
2019-02-21T21:52:25.292Z,32.93
2019-02-21T21:54:53.567Z,32.70
2019-02-21T21:57:21.862Z,33.20
2019-02-21T21:59:50.227Z,34.10
2019-02-21T22:02:18.499Z,34.13
2019-02-21T22:04:46.873Z,34.60
2019-02-21T22:07:16.835Z,33.20
2019-02-21T22:09:45.107Z,33.20
2019-02-21T22:12:13.397Z,31.97
2019-02-21T22:14:41.680Z,33.47
2019-02-21T22:17:09.958Z,34.70
2019-02-21T22:19:38.264Z,33.53
2019-02-21T22:22:06.555Z,34.10
2019-02-21T22:24:34.829Z,35.10
2019-02-21T22:27:03.104Z,35.67
2019-02-21T22:29:31.396Z,34.87
2019-02-21T22:31:59.755Z,33.97
2019-02-21T22:34:28.052Z,32.40
2019-02-21T22:36:56.326Z,31.37
2019-02-21T22:39:24.620Z,32.70
2019-02-21T22:41:52.882Z,30.30
2019-02-21T22:44:21.172Z,31.00
2019-02-21T22:46:49.447Z,31.77
2019-02-21T22:49:17.704Z,32.00
2019-02-21T22:51:45.994Z,31.43
2019-02-21T22:54:14.262Z,32.50
2019-02-21T22:56:42.825Z,32.93
2019-02-21T22:59:11.207Z,32.90
2019-02-21T23:01:39.553Z,30.40
2019-02-21T23:04:14.168Z,30.60
2019-02-21T23:06:54.663Z,32.37
2019-02-21T23:09:27.576Z,31.10
2019-02-21T23:11:54.325Z,32.03
2019-02-21T23:14:22.606Z,31.90
2019-02-21T23:16:50.872Z,30.40
2019-02-21T23:19:19.164Z,31.37
2019-02-21T23:21:47.452Z,31.10
2019-02-21T23:24:15.837Z,31.07
2019-02-21T23:26:44.112Z,32.83
2019-02-21T23:29:12.373Z,30.73
2019-02-21T23:31:40.736Z,30.97
2019-02-21T23:34:13.589Z,31.10
2019-02-21T23:36:41.872Z,30.70
2019-02-21T23:39:10.150Z,30.30
2019-02-21T23:41:38.428Z,28.87
2019-02-21T23:44:06.784Z,31.13
2019-02-21T23:46:35.068Z,30.10
2019-02-21T23:49:03.350Z,30.13
2019-02-21T23:51:31.644Z,29.50
2019-02-21T23:54:03.019Z,29.47
2019-02-21T23:56:29.953Z,30.00
2019-02-21T23:58:58.233Z,31.07
